sensor_id;sensor_type;location;lat;lon;timestamp;pressure;altitude;pressure_sealevel;temperature
31921;BMP280;66485;52.128;4.436;2023-06-10T00:00:37;101609.09;;;26.99
31921;BMP280;66485;52.128;4.436;2023-06-10T00:03:03;101606.78;;;26.98
31921;BMP280;66485;52.128;4.436;2023-06-10T00:05:28;101606.78;;;26.98
31921;BMP280;66485;52.128;4.436;2023-06-10T00:07:56;101608.78;;;26.97
31921;BMP280;66485;52.128;4.436;2023-06-10T00:10:23;101608.78;;;26.97
31921;BMP280;66485;52.128;4.436;2023-06-10T00:12:49;101618.72;;;26.95
31921;BMP280;66485;52.128;4.436;2023-06-10T00:15:14;101618.72;;;26.95
31921;BMP280;66485;52.128;4.436;2023-06-10T00:17:40;101618.41;;;26.93
31921;BMP280;66485;52.128;4.436;2023-06-10T00:20:08;101618.41;;;26.93
31921;BMP280;66485;52.128;4.436;2023-06-10T00:22:35;101625.09;;;26.92
31921;BMP280;66485;52.128;4.436;2023-06-10T00:25:01;101611.81;;;26.90
31921;BMP280;66485;52.128;4.436;2023-06-10T00:27:29;101609.53;;;26.89
31921;BMP280;66485;52.128;4.436;2023-06-10T00:30:00;101610.31;;;26.89
31921;BMP280;66485;52.128;4.436;2023-06-10T00:32:26;101611.25;;;26.86
31921;BMP280;66485;52.128;4.436;2023-06-10T00:34:51;101610.00;;;26.87
31921;BMP280;66485;52.128;4.436;2023-06-10T00:37:16;101620.69;;;26.85
31921;BMP280;66485;52.128;4.436;2023-06-10T00:39:41;101614.44;;;26.85
31921;BMP280;66485;52.128;4.436;2023-06-10T00:42:07;101618.41;;;26.84
31921;BMP280;66485;52.128;4.436;2023-06-10T00:44:33;101613.34;;;26.82
31921;BMP280;66485;52.128;4.436;2023-06-10T00:46:58;101613.34;;;26.82
31921;BMP280;66485;52.128;4.436;2023-06-10T00:49:24;101609.53;;;26.79
31921;BMP280;66485;52.128;4.436;2023-06-10T00:51:51;101618.53;;;26.80
31921;BMP280;66485;52.128;4.436;2023-06-10T00:54:17;101614.28;;;26.79
31921;BMP280;66485;52.128;4.436;2023-06-10T00:56:43;101614.28;;;26.79
31921;BMP280;66485;52.128;4.436;2023-06-10T00:59:09;101611.97;;;26.77
31921;BMP280;66485;52.128;4.436;2023-06-10T01:01:34;101613.22;;;26.76
31921;BMP280;66485;52.128;4.436;2023-06-10T01:03:59;101613.22;;;26.76
31921;BMP280;66485;52.128;4.436;2023-06-10T01:09:38;101613.38;;;26.73
31921;BMP280;66485;52.128;4.436;2023-06-10T01:12:12;101609.38;;;26.74
31921;BMP280;66485;52.128;4.436;2023-06-10T01:14:41;101609.38;;;26.74
31921;BMP280;66485;52.128;4.436;2023-06-10T01:17:10;101606.03;;;26.70
31921;BMP280;66485;52.128;4.436;2023-06-10T01:19:36;101606.03;;;26.70
31921;BMP280;66485;52.128;4.436;2023-06-10T01:22:02;101615.78;;;26.71
31921;BMP280;66485;52.128;4.436;2023-06-10T01:24:28;101612.25;;;26.70
31921;BMP280;66485;52.128;4.436;2023-06-10T01:26:55;101612.25;;;26.70
31921;BMP280;66485;52.128;4.436;2023-06-10T01:29:32;101619.00;;;26.69
31921;BMP280;66485;52.128;4.436;2023-06-10T01:32:17;101619.00;;;26.69
31921;BMP280;66485;52.128;4.436;2023-06-10T01:34:44;101612.13;;;26.65
31921;BMP280;66485;52.128;4.436;2023-06-10T01:37:13;101615.66;;;26.65
31921;BMP280;66485;52.128;4.436;2023-06-10T01:39:40;101611.38;;;26.64
31921;BMP280;66485;52.128;4.436;2023-06-10T01:42:08;101618.09;;;26.63
31921;BMP280;66485;52.128;4.436;2023-06-10T01:44:35;101618.09;;;26.63
31921;BMP280;66485;52.128;4.436;2023-06-10T01:47:00;101612.59;;;26.63
31921;BMP280;66485;52.128;4.436;2023-06-10T01:49:26;101613.81;;;26.62
31921;BMP280;66485;52.128;4.436;2023-06-10T01:51:53;101605.25;;;26.60
31921;BMP280;66485;52.128;4.436;2023-06-10T01:54:19;101614.25;;;26.61
31921;BMP280;66485;52.128;4.436;2023-06-10T01:56:44;101608.75;;;26.61
31921;BMP280;66485;52.128;4.436;2023-06-10T01:59:09;101608.75;;;26.61
31921;BMP280;66485;52.128;4.436;2023-06-10T02:01:35;101609.38;;;26.56
31921;BMP280;66485;52.128;4.436;2023-06-10T02:04:00;101621.44;;;26.58
31921;BMP280;66485;52.128;4.436;2023-06-10T02:06:25;101619.16;;;26.57
31921;BMP280;66485;52.128;4.436;2023-06-10T02:08:51;101619.16;;;26.57
31921;BMP280;66485;52.128;4.436;2023-06-10T02:11:16;101616.41;;;26.57
31921;BMP280;66485;52.128;4.436;2023-06-10T02:13:41;101616.41;;;26.57
31921;BMP280;66485;52.128;4.436;2023-06-10T02:16:07;101610.75;;;26.51
31921;BMP280;66485;52.128;4.436;2023-06-10T02:18:32;101615.78;;;26.53
31921;BMP280;66485;52.128;4.436;2023-06-10T02:20:58;101619.75;;;26.52
31921;BMP280;66485;52.128;4.436;2023-06-10T02:23:24;101619.75;;;26.52
31921;BMP280;66485;52.128;4.436;2023-06-10T02:25:49;101625.25;;;26.52
31921;BMP280;66485;52.128;4.436;2023-06-10T02:28:15;101625.25;;;26.52
31921;BMP280;66485;52.128;4.436;2023-06-10T02:30:41;101618.38;;;26.47
31921;BMP280;66485;52.128;4.436;2023-06-10T02:33:07;101621.13;;;26.47
31921;BMP280;66485;52.128;4.436;2023-06-10T02:35:36;101625.84;;;26.47
31921;BMP280;66485;52.128;4.436;2023-06-10T02:38:01;101626.16;;;26.49
31921;BMP280;66485;52.128;4.436;2023-06-10T02:40:27;101623.09;;;26.47
31921;BMP280;66485;52.128;4.436;2023-06-10T02:42:52;101632.56;;;26.46
31921;BMP280;66485;52.128;4.436;2023-06-10T02:45:17;101631.34;;;26.47
31921;BMP280;66485;52.128;4.436;2023-06-10T02:47:43;101630.59;;;26.46
31921;BMP280;66485;52.128;4.436;2023-06-10T02:50:08;101624.78;;;26.44
31921;BMP280;66485;52.128;4.436;2023-06-10T02:52:34;101615.00;;;26.43
31921;BMP280;66485;52.128;4.436;2023-06-10T02:54:59;101627.97;;;26.43
31921;BMP280;66485;52.128;4.436;2023-06-10T02:57:24;101623.69;;;26.42
31921;BMP280;66485;52.128;4.436;2023-06-10T02:59:50;101626.44;;;26.42
31921;BMP280;66485;52.128;4.436;2023-06-10T03:02:16;101626.44;;;26.42
31921;BMP280;66485;52.128;4.436;2023-06-10T03:04:41;101618.66;;;26.40
31921;BMP280;66485;52.128;4.436;2023-06-10T03:07:09;101618.66;;;26.40
31921;BMP280;66485;52.128;4.436;2023-06-10T03:09:36;101616.84;;;26.37
31921;BMP280;66485;52.128;4.436;2023-06-10T03:12:01;101617.88;;;26.40
31921;BMP280;66485;52.128;4.436;2023-06-10T03:14:27;101619.56;;;26.37
31921;BMP280;66485;52.128;4.436;2023-06-10T03:16:52;101619.56;;;26.37
31921;BMP280;66485;52.128;4.436;2023-06-10T03:19:18;101623.53;;;26.36
31921;BMP280;66485;52.128;4.436;2023-06-10T03:21:44;101622.31;;;26.37
31921;BMP280;66485;52.128;4.436;2023-06-10T03:24:10;101629.03;;;26.36
31921;BMP280;66485;52.128;4.436;2023-06-10T03:26:36;101629.03;;;26.36
31921;BMP280;66485;52.128;4.436;2023-06-10T03:29:02;101624.91;;;26.31
31921;BMP280;66485;52.128;4.436;2023-06-10T03:31:27;101626.75;;;26.34
31921;BMP280;66485;52.128;4.436;2023-06-10T03:33:52;101626.75;;;26.34
31921;BMP280;66485;52.128;4.436;2023-06-10T03:36:18;101634.69;;;26.32
31921;BMP280;66485;52.128;4.436;2023-06-10T03:38:43;101634.69;;;26.32
31921;BMP280;66485;52.128;4.436;2023-06-10T03:41:08;101635.59;;;26.29
31921;BMP280;66485;52.128;4.436;2023-06-10T03:43:34;101639.41;;;26.32
31921;BMP280;66485;52.128;4.436;2023-06-10T03:45:59;101639.88;;;26.30
31921;BMP280;66485;52.128;4.436;2023-06-10T03:48:24;101647.34;;;26.30
31921;BMP280;66485;52.128;4.436;2023-06-10T03:50:50;101650.09;;;26.30
31921;BMP280;66485;52.128;4.436;2023-06-10T03:53:18;101647.34;;;26.30
31921;BMP280;66485;52.128;4.436;2023-06-10T03:55:43;101648.53;;;26.29
31921;BMP280;66485;52.128;4.436;2023-06-10T03:58:09;101649.78;;;26.28
31921;BMP280;66485;52.128;4.436;2023-06-10T04:00:38;101649.78;;;26.28
31921;BMP280;66485;52.128;4.436;2023-06-10T04:03:07;101643.50;;;26.27
31921;BMP280;66485;52.128;4.436;2023-06-10T04:05:34;101643.50;;;26.27
31921;BMP280;66485;52.128;4.436;2023-06-10T04:08:00;101650.66;;;26.25
31921;BMP280;66485;52.128;4.436;2023-06-10T04:10:26;101650.66;;;26.25
31921;BMP280;66485;52.128;4.436;2023-06-10T04:12:52;101651.44;;;26.25
31921;BMP280;66485;52.128;4.436;2023-06-10T04:15:17;101655.41;;;26.24
31921;BMP280;66485;52.128;4.436;2023-06-10T04:17:43;101654.16;;;26.25
31921;BMP280;66485;52.128;4.436;2023-06-10T04:20:08;101654.16;;;26.25
31921;BMP280;66485;52.128;4.436;2023-06-10T04:22:35;101660.13;;;26.24
31921;BMP280;66485;52.128;4.436;2023-06-10T04:25:01;101660.13;;;26.24
31921;BMP280;66485;52.128;4.436;2023-06-10T04:27:27;101661.34;;;26.23
31921;BMP280;66485;52.128;4.436;2023-06-10T04:29:52;101668.81;;;26.22
31921;BMP280;66485;52.128;4.436;2023-06-10T04:32:18;101668.81;;;26.22
31921;BMP280;66485;52.128;4.436;2023-06-10T04:34:43;101681.50;;;26.20
31921;BMP280;66485;52.128;4.436;2023-06-10T04:37:09;101670.81;;;26.22
31921;BMP280;66485;52.128;4.436;2023-06-10T04:39:34;101681.03;;;26.21
31921;BMP280;66485;52.128;4.436;2023-06-10T04:41:59;101674.78;;;26.21
31921;BMP280;66485;52.128;4.436;2023-06-10T04:44:25;101674.78;;;26.21
31921;BMP280;66485;52.128;4.436;2023-06-10T04:46:51;101677.22;;;26.19
31921;BMP280;66485;52.128;4.436;2023-06-10T04:49:16;101677.53;;;26.21
31921;BMP280;66485;52.128;4.436;2023-06-10T04:51:41;101681.50;;;26.20
31921;BMP280;66485;52.128;4.436;2023-06-10T04:54:07;101678.75;;;26.20
31921;BMP280;66485;52.128;4.436;2023-06-10T04:56:32;101678.75;;;26.20
31921;BMP280;66485;52.128;4.436;2023-06-10T04:58:58;101670.91;;;26.18
31921;BMP280;66485;52.128;4.436;2023-06-10T05:01:24;101670.91;;;26.18
31921;BMP280;66485;52.128;4.436;2023-06-10T05:03:49;101679.94;;;26.19
31921;BMP280;66485;52.128;4.436;2023-06-10T05:06:14;101682.38;;;26.17
31921;BMP280;66485;52.128;4.436;2023-06-10T05:08:40;101674.47;;;26.19
31921;BMP280;66485;52.128;4.436;2023-06-10T05:11:05;101680.41;;;26.17
31921;BMP280;66485;52.128;4.436;2023-06-10T05:13:31;101679.94;;;26.19
31921;BMP280;66485;52.128;4.436;2023-06-10T05:15:57;101675.66;;;26.18
31921;BMP280;66485;52.128;4.436;2023-06-10T05:18:22;101672.94;;;26.18
31921;BMP280;66485;52.128;4.436;2023-06-10T05:20:47;101679.63;;;26.17
31921;BMP280;66485;52.128;4.436;2023-06-10T05:23:13;101679.63;;;26.17
31921;BMP280;66485;52.128;4.436;2023-06-10T05:25:38;101679.63;;;26.17
31921;BMP280;66485;52.128;4.436;2023-06-10T05:28:04;101684.66;;;26.18
31921;BMP280;66485;52.128;4.436;2023-06-10T05:30:29;101673.66;;;26.18
31921;BMP280;66485;52.128;4.436;2023-06-10T05:32:54;101673.66;;;26.18
31921;BMP280;66485;52.128;4.436;2023-06-10T05:35:21;101680.84;;;26.16
31921;BMP280;66485;52.128;4.436;2023-06-10T05:37:46;101680.06;;;26.15
31921;BMP280;66485;52.128;4.436;2023-06-10T05:40:12;101680.84;;;26.16
31921;BMP280;66485;52.128;4.436;2023-06-10T05:42:37;101680.84;;;26.16
31921;BMP280;66485;52.128;4.436;2023-06-10T05:45:03;101681.31;;;26.14
31921;BMP280;66485;52.128;4.436;2023-06-10T05:47:28;101681.31;;;26.14
31921;BMP280;66485;52.128;4.436;2023-06-10T05:49:54;101683.59;;;26.16
31921;BMP280;66485;52.128;4.436;2023-06-10T05:52:19;101690.31;;;26.15
31921;BMP280;66485;52.128;4.436;2023-06-10T05:54:45;101691.81;;;26.16
31921;BMP280;66485;52.128;4.436;2023-06-10T05:57:10;101689.06;;;26.16
31921;BMP280;66485;52.128;4.436;2023-06-10T05:59:36;101685.72;;;26.12
31921;BMP280;66485;52.128;4.436;2023-06-10T06:02:01;101702.81;;;26.16
31921;BMP280;66485;52.128;4.436;2023-06-10T06:04:26;101694.13;;;26.17
31921;BMP280;66485;52.128;4.436;2023-06-10T06:06:52;101687.56;;;26.15
31921;BMP280;66485;52.128;4.436;2023-06-10T06:09:17;101693.06;;;26.15
31921;BMP280;66485;52.128;4.436;2023-06-10T06:11:42;101688.31;;;26.15
31921;BMP280;66485;52.128;4.436;2023-06-10T06:14:08;101686.81;;;26.14
31921;BMP280;66485;52.128;4.436;2023-06-10T06:16:33;101683.28;;;26.14
31921;BMP280;66485;52.128;4.436;2023-06-10T06:18:59;101697.78;;;26.14
31921;BMP280;66485;52.128;4.436;2023-06-10T06:21:24;101688.78;;;26.14
31921;BMP280;66485;52.128;4.436;2023-06-10T06:23:49;101688.78;;;26.14
31921;BMP280;66485;52.128;4.436;2023-06-10T06:26:15;101696.69;;;26.12
31921;BMP280;66485;52.128;4.436;2023-06-10T06:28:40;101702.50;;;26.14
31921;BMP280;66485;52.128;4.436;2023-06-10T06:31:06;101702.50;;;26.14
31921;BMP280;66485;52.128;4.436;2023-06-10T06:33:32;101686.94;;;26.11
31921;BMP280;66485;52.128;4.436;2023-06-10T06:35:57;101686.94;;;26.11
31921;BMP280;66485;52.128;4.436;2023-06-10T06:38:25;101686.94;;;26.11
31921;BMP280;66485;52.128;4.436;2023-06-10T06:40:50;101700.53;;;26.14
31921;BMP280;66485;52.128;4.436;2023-06-10T06:43:16;101700.53;;;26.14
31921;BMP280;66485;52.128;4.436;2023-06-10T06:45:42;101704.78;;;26.15
31921;BMP280;66485;52.128;4.436;2023-06-10T06:48:07;101704.78;;;26.15
31921;BMP280;66485;52.128;4.436;2023-06-10T06:50:33;101704.03;;;26.15
31921;BMP280;66485;52.128;4.436;2023-06-10T06:52:58;101708.31;;;26.16
31921;BMP280;66485;52.128;4.436;2023-06-10T06:55:23;101708.31;;;26.16
31921;BMP280;66485;52.128;4.436;2023-06-10T06:57:49;101708.31;;;26.16
31921;BMP280;66485;52.128;4.436;2023-06-10T07:00:14;101702.50;;;26.14
31921;BMP280;66485;52.128;4.436;2023-06-10T07:02:40;101712.28;;;26.15
31921;BMP280;66485;52.128;4.436;2023-06-10T07:05:06;101712.28;;;26.15
31921;BMP280;66485;52.128;4.436;2023-06-10T07:07:31;101716.53;;;26.16
31921;BMP280;66485;52.128;4.436;2023-06-10T07:09:56;101713.03;;;26.15
31921;BMP280;66485;52.128;4.436;2023-06-10T07:12:21;101711.03;;;26.16
31921;BMP280;66485;52.128;4.436;2023-06-10T07:14:50;101712.28;;;26.15
31921;BMP280;66485;52.128;4.436;2023-06-10T07:17:16;101712.28;;;26.15
31921;BMP280;66485;52.128;4.436;2023-06-10T07:19:43;101714.56;;;26.16
31921;BMP280;66485;52.128;4.436;2023-06-10T07:22:08;101708.44;;;26.12
31921;BMP280;66485;52.128;4.436;2023-06-10T07:24:34;101712.59;;;26.17
31921;BMP280;66485;52.128;4.436;2023-06-10T07:26:59;101714.56;;;26.16
31921;BMP280;66485;52.128;4.436;2023-06-10T07:29:24;101714.13;;;26.18
31921;BMP280;66485;52.128;4.436;2023-06-10T07:31:50;101719.63;;;26.18
31921;BMP280;66485;52.128;4.436;2023-06-10T07:34:15;101719.63;;;26.18
31921;BMP280;66485;52.128;4.436;2023-06-10T07:36:40;101709.84;;;26.17
31921;BMP280;66485;52.128;4.436;2023-06-10T07:39:06;101708.63;;;26.18
31921;BMP280;66485;52.128;4.436;2023-06-10T07:41:32;101706.22;;;26.20
31921;BMP280;66485;52.128;4.436;2023-06-10T07:43:57;101710.94;;;26.19
31921;BMP280;66485;52.128;4.436;2023-06-10T07:46:23;101708.94;;;26.20
31921;BMP280;66485;52.128;4.436;2023-06-10T07:48:49;101705.09;;;26.17
31921;BMP280;66485;52.128;4.436;2023-06-10T07:51:16;101712.09;;;26.18
31921;BMP280;66485;52.128;4.436;2023-06-10T07:53:41;101705.88;;;26.18
31921;BMP280;66485;52.128;4.436;2023-06-10T07:56:07;101711.69;;;26.20
31921;BMP280;66485;52.128;4.436;2023-06-10T07:58:32;101699.19;;;26.19
31921;BMP280;66485;52.128;4.436;2023-06-10T08:00:58;101701.47;;;26.20
31921;BMP280;66485;52.128;4.436;2023-06-10T08:03:23;101709.25;;;26.22
31921;BMP280;66485;52.128;4.436;2023-06-10T08:05:48;101710.50;;;26.21
31921;BMP280;66485;52.128;4.436;2023-06-10T08:08:14;101710.78;;;26.23
31921;BMP280;66485;52.128;4.436;2023-06-10T08:10:39;101709.25;;;26.22
31921;BMP280;66485;52.128;4.436;2023-06-10T08:13:04;101717.50;;;26.22
31921;BMP280;66485;52.128;4.436;2023-06-10T08:15:30;101717.50;;;26.22
31921;BMP280;66485;52.128;4.436;2023-06-10T08:17:55;101712.75;;;26.22
31921;BMP280;66485;52.128;4.436;2023-06-10T08:20:21;101720.56;;;26.24
31921;BMP280;66485;52.128;4.436;2023-06-10T08:22:47;101718.59;;;26.24
31921;BMP280;66485;52.128;4.436;2023-06-10T08:25:12;101710.78;;;26.23
31921;BMP280;66485;52.128;4.436;2023-06-10T08:27:43;101710.78;;;26.23
31921;BMP280;66485;52.128;4.436;2023-06-10T08:30:09;101717.34;;;26.25
31921;BMP280;66485;52.128;4.436;2023-06-10T08:32:36;101715.84;;;26.24
31921;BMP280;66485;52.128;4.436;2023-06-10T08:35:02;101715.84;;;26.24
31921;BMP280;66485;52.128;4.436;2023-06-10T08:37:27;101718.88;;;26.26
31921;BMP280;66485;52.128;4.436;2023-06-10T08:39:52;101715.38;;;26.26
31921;BMP280;66485;52.128;4.436;2023-06-10T08:42:39;101718.13;;;26.26
31921;BMP280;66485;52.128;4.436;2023-06-10T08:45:07;101718.13;;;26.26
31921;BMP280;66485;52.128;4.436;2023-06-10T08:47:33;101710.19;;;26.28
31921;BMP280;66485;52.128;4.436;2023-06-10T08:50:04;101719.19;;;26.28
31921;BMP280;66485;52.128;4.436;2023-06-10T08:52:37;101719.19;;;26.28
31921;BMP280;66485;52.128;4.436;2023-06-10T08:55:07;101711.69;;;26.29
31921;BMP280;66485;52.128;4.436;2023-06-10T08:57:33;101717.66;;;26.27
31921;BMP280;66485;52.128;4.436;2023-06-10T08:59:59;101717.66;;;26.27
31921;BMP280;66485;52.128;4.436;2023-06-10T09:02:25;101710.19;;;26.28
31921;BMP280;66485;52.128;4.436;2023-06-10T09:04:52;101713.56;;;26.32
31921;BMP280;66485;52.128;4.436;2023-06-10T09:07:18;101713.56;;;26.32
31921;BMP280;66485;52.128;4.436;2023-06-10T09:09:44;101714.66;;;26.34
31921;BMP280;66485;52.128;4.436;2023-06-10T09:12:10;101724.88;;;26.34
31921;BMP280;66485;52.128;4.436;2023-06-10T09:14:37;101715.41;;;26.35
31921;BMP280;66485;52.128;4.436;2023-06-10T09:17:03;101714.66;;;26.34
31921;BMP280;66485;52.128;4.436;2023-06-10T09:19:29;101719.69;;;26.36
31921;BMP280;66485;52.128;4.436;2023-06-10T09:21:54;101719.69;;;26.36
31921;BMP280;66485;52.128;4.436;2023-06-10T09:24:24;101717.69;;;26.36
31921;BMP280;66485;52.128;4.436;2023-06-10T09:26:49;101721.97;;;26.38
31921;BMP280;66485;52.128;4.436;2023-06-10T09:29:16;101719.69;;;26.36
31921;BMP280;66485;52.128;4.436;2023-06-10T09:31:43;101719.69;;;26.36
31921;BMP280;66485;52.128;4.436;2023-06-10T09:34:13;101724.25;;;26.39
31921;BMP280;66485;52.128;4.436;2023-06-10T09:36:40;101724.25;;;26.39
31921;BMP280;66485;52.128;4.436;2023-06-10T09:39:14;101708.97;;;26.38
31921;BMP280;66485;52.128;4.436;2023-06-10T09:41:43;101724.91;;;26.43
31921;BMP280;66485;52.128;4.436;2023-06-10T09:44:26;101715.91;;;26.43
31921;BMP280;66485;52.128;4.436;2023-06-10T09:46:52;101722.47;;;26.45
31921;BMP280;66485;52.128;4.436;2023-06-10T09:49:19;101719.72;;;26.45
31921;BMP280;66485;52.128;4.436;2023-06-10T09:51:53;101723.22;;;26.46
31921;BMP280;66485;52.128;4.436;2023-06-10T09:54:18;101723.22;;;26.46
31921;BMP280;66485;52.128;4.436;2023-06-10T09:56:47;101712.53;;;26.48
31921;BMP280;66485;52.128;4.436;2023-06-10T09:59:13;101718.78;;;26.48
31921;BMP280;66485;52.128;4.436;2023-06-10T10:01:39;101716.38;;;26.50
31921;BMP280;66485;52.128;4.436;2023-06-10T10:04:04;101720.31;;;26.49
31921;BMP280;66485;52.128;4.436;2023-06-10T10:06:30;101724.94;;;26.52
31921;BMP280;66485;52.128;4.436;2023-06-10T10:08:55;101724.94;;;26.52
31921;BMP280;66485;52.128;4.436;2023-06-10T10:11:21;101715.16;;;26.51
31921;BMP280;66485;52.128;4.436;2023-06-10T10:13:49;101717.00;;;26.54
31921;BMP280;66485;52.128;4.436;2023-06-10T10:16:17;101718.53;;;26.55
31921;BMP280;66485;52.128;4.436;2023-06-10T10:18:53;101717.31;;;26.56
31921;BMP280;66485;52.128;4.436;2023-06-10T10:21:23;101714.56;;;26.56
31921;BMP280;66485;52.128;4.436;2023-06-10T10:26:26;101710.91;;;26.59
31921;BMP280;66485;52.128;4.436;2023-06-10T10:29:00;101705.09;;;26.57
31921;BMP280;66485;52.128;4.436;2023-06-10T10:31:32;101710.00;;;26.62
31921;BMP280;66485;52.128;4.436;2023-06-10T10:33:59;101719.03;;;26.63
31921;BMP280;66485;52.128;4.436;2023-06-10T10:36:25;101719.03;;;26.63
31921;BMP280;66485;52.128;4.436;2023-06-10T10:38:51;101706.34;;;26.65
31921;BMP280;66485;52.128;4.436;2023-06-10T10:41:16;101703.16;;;26.67
31921;BMP280;66485;52.128;4.436;2023-06-10T10:43:44;101703.16;;;26.67
31921;BMP280;66485;52.128;4.436;2023-06-10T10:46:14;101702.97;;;26.70
31921;BMP280;66485;52.128;4.436;2023-06-10T10:48:40;101703.28;;;26.72
31921;BMP280;66485;52.128;4.436;2023-06-10T10:51:11;101710.31;;;26.73
31921;BMP280;66485;52.128;4.436;2023-06-10T10:53:37;101709.09;;;26.74
31921;BMP280;66485;52.128;4.436;2023-06-10T10:56:15;101708.94;;;26.78
31921;BMP280;66485;52.128;4.436;2023-06-10T10:59:02;101708.94;;;26.78
31921;BMP280;66485;52.128;4.436;2023-06-10T11:01:39;101699.00;;;26.80
31921;BMP280;66485;52.128;4.436;2023-06-10T11:04:07;101690.31;;;26.82
31921;BMP280;66485;52.128;4.436;2023-06-10T11:06:33;101702.41;;;26.85
31921;BMP280;66485;52.128;4.436;2023-06-10T11:08:58;101702.41;;;26.85
31921;BMP280;66485;52.128;4.436;2023-06-10T11:11:27;101698.44;;;26.86
31921;BMP280;66485;52.128;4.436;2023-06-10T11:16:28;101685.59;;;26.92
31921;BMP280;66485;52.128;4.436;2023-06-10T11:18:54;101685.59;;;26.92
31921;BMP280;66485;52.128;4.436;2023-06-10T11:21:20;101698.75;;;26.97
31921;BMP280;66485;52.128;4.436;2023-06-10T11:23:45;101685.31;;;26.99
31921;BMP280;66485;52.128;4.436;2023-06-10T11:29:00;101685.88;;;27.03
31921;BMP280;66485;52.128;4.436;2023-06-10T11:31:27;101680.56;;;27.08
31921;BMP280;66485;52.128;4.436;2023-06-10T11:33:57;101680.56;;;27.08
31921;BMP280;66485;52.128;4.436;2023-06-10T11:36:23;101675.66;;;27.12
31921;BMP280;66485;52.128;4.436;2023-06-10T11:38:57;101678.72;;;27.14
31921;BMP280;66485;52.128;4.436;2023-06-10T11:41:24;101668.81;;;27.17
31921;BMP280;66485;52.128;4.436;2023-06-10T11:43:50;101678.88;;;27.20
31921;BMP280;66485;52.128;4.436;2023-06-10T11:46:16;101676.41;;;27.22
31921;BMP280;66485;52.128;4.436;2023-06-10T11:48:49;101676.41;;;27.22
31921;BMP280;66485;52.128;4.436;2023-06-10T11:51:15;101669.56;;;27.27
31921;BMP280;66485;52.128;4.436;2023-06-10T11:53:43;101665.13;;;27.29
31921;BMP280;66485;52.128;4.436;2023-06-10T11:56:09;101669.97;;;27.34
31921;BMP280;66485;52.128;4.436;2023-06-10T11:58:34;101666.00;;;27.35
31921;BMP280;66485;52.128;4.436;2023-06-10T12:01:00;101671.38;;;27.39
31921;BMP280;66485;52.128;4.436;2023-06-10T12:03:27;101666.16;;;27.41
31921;BMP280;66485;52.128;4.436;2023-06-10T12:06:05;101664.47;;;27.43
31921;BMP280;66485;52.128;4.436;2023-06-10T12:08:31;101664.47;;;27.43
31921;BMP280;66485;52.128;4.436;2023-06-10T12:10:57;101653.63;;;27.49
31921;BMP280;66485;52.128;4.436;2023-06-10T12:13:25;101652.69;;;27.52
31921;BMP280;66485;52.128;4.436;2023-06-10T12:15:51;101650.22;;;27.54
31921;BMP280;66485;52.128;4.436;2023-06-10T12:18:23;101652.03;;;27.57
31921;BMP280;66485;52.128;4.436;2023-06-10T12:20:50;101658.63;;;27.59
31921;BMP280;66485;52.128;4.436;2023-06-10T12:23:18;101660.44;;;27.62
31921;BMP280;66485;52.128;4.436;2023-06-10T12:25:54;101649.75;;;27.64
31921;BMP280;66485;52.128;4.436;2023-06-10T12:28:24;101637.47;;;27.65
31921;BMP280;66485;52.128;4.436;2023-06-10T12:30:50;101650.66;;;27.70
31921;BMP280;66485;52.128;4.436;2023-06-10T12:33:17;101645.75;;;27.75
31921;BMP280;66485;52.128;4.436;2023-06-10T12:35:49;101653.78;;;27.78
31921;BMP280;66485;52.128;4.436;2023-06-10T12:38:23;101648.59;;;27.80
31921;BMP280;66485;52.128;4.436;2023-06-10T12:40:53;101652.44;;;27.83
31921;BMP280;66485;52.128;4.436;2023-06-10T12:43:22;101652.44;;;27.83
31921;BMP280;66485;52.128;4.436;2023-06-10T12:45:49;101645.97;;;27.86
31921;BMP280;66485;52.128;4.436;2023-06-10T12:48:20;101650.84;;;27.91
31921;BMP280;66485;52.128;4.436;2023-06-10T12:50:51;101647.16;;;27.94
31921;BMP280;66485;52.128;4.436;2023-06-10T12:53:17;101639.22;;;27.96
31921;BMP280;66485;52.128;4.436;2023-06-10T12:55:43;101643.78;;;27.99
31921;BMP280;66485;52.128;4.436;2023-06-10T12:58:10;101642.06;;;28.01
31921;BMP280;66485;52.128;4.436;2023-06-10T13:00:36;101641.94;;;28.05
31921;BMP280;66485;52.128;4.436;2023-06-10T13:03:02;101643.75;;;28.08
31921;BMP280;66485;52.128;4.436;2023-06-10T13:05:28;101648.31;;;28.11
31921;BMP280;66485;52.128;4.436;2023-06-10T13:07:54;101639.13;;;28.14
31921;BMP280;66485;52.128;4.436;2023-06-10T13:10:20;101636.66;;;28.16
31921;BMP280;66485;52.128;4.436;2023-06-10T13:12:46;101634.16;;;28.18
31921;BMP280;66485;52.128;4.436;2023-06-10T13:15:12;101629.72;;;28.21
31921;BMP280;66485;52.128;4.436;2023-06-10T13:17:38;101629.72;;;28.21
31921;BMP280;66485;52.128;4.436;2023-06-10T13:20:04;101632.00;;;28.22
31921;BMP280;66485;52.128;4.436;2023-06-10T13:22:31;101633.06;;;28.25
31921;BMP280;66485;52.128;4.436;2023-06-10T13:24:58;101620.84;;;28.26
31921;BMP280;66485;52.128;4.436;2023-06-10T13:27:24;101627.06;;;28.35
31921;BMP280;66485;52.128;4.436;2023-06-10T13:29:49;101627.06;;;28.35
31921;BMP280;66485;52.128;4.436;2023-06-10T13:32:15;101625.16;;;28.41
31921;BMP280;66485;52.128;4.436;2023-06-10T13:34:40;101631.72;;;28.44
31921;BMP280;66485;52.128;4.436;2023-06-10T13:37:05;101626.50;;;28.46
31921;BMP280;66485;52.128;4.436;2023-06-10T13:39:31;101616.50;;;28.48
31921;BMP280;66485;52.128;4.436;2023-06-10T13:41:56;101614.84;;;28.51
31921;BMP280;66485;52.128;4.436;2023-06-10T13:44:22;101615.88;;;28.53
31921;BMP280;66485;52.128;4.436;2023-06-10T13:46:47;101615.88;;;28.53
31921;BMP280;66485;52.128;4.436;2023-06-10T13:49:12;101610.47;;;28.59
31921;BMP280;66485;52.128;4.436;2023-06-10T13:51:38;101612.75;;;28.60
31921;BMP280;66485;52.128;4.436;2023-06-10T13:54:03;101612.75;;;28.60
31921;BMP280;66485;52.128;4.436;2023-06-10T13:56:28;101607.31;;;28.66
31921;BMP280;66485;52.128;4.436;2023-06-10T13:58:54;101608.41;;;28.69
31921;BMP280;66485;52.128;4.436;2023-06-10T14:01:19;101608.41;;;28.69
31921;BMP280;66485;52.128;4.436;2023-06-10T14:03:45;101607.72;;;28.74